Time;durP1;ratioP1;P1;durP2;ratioP2;P2;SDS_P1;SDS_P2;PMS_P1;PMS_P2;Temp;Humidity;BMP_temperature;BMP_pressure;BME280_temperature;BME280_humidity;BME280_pressure;Samples;Min_cycle;Max_cycle;Signal;HPM_P1;HPM_P2
2022/06/20 00:02:19;;;;;;;;;;;22.80;51.90;;;;;;5073212;28;20351;-61
2022/06/20 00:04:46;;;;;;;;;;;22.80;52.10;;;;;;5073663;28;19917;-62
2022/06/20 00:07:12;;;;;;;;;;;22.80;52.30;;;;;;5087609;28;19947;-68
2022/06/20 00:09:37;;;;;;;;;;;22.90;52.50;;;;;;5074100;28;19943;-61
2022/06/20 00:12:03;;;;;;;;;;;23.00;51.90;;;;;;5075052;28;19982;-60
2022/06/20 00:14:28;;;;;;;;;;;23.10;51.60;;;;;;5075058;28;19920;-62
2022/06/20 00:16:54;;;;;;;;;;;23.10;51.50;;;;;;5074793;28;20430;-60
2022/06/20 00:19:20;;;;;;;;;;;23.10;51.60;;;;;;5074484;28;19961;-66
2022/06/20 00:21:45;;;;;;;;;;;23.20;51.20;;;;;;5074576;28;19920;-60
2022/06/20 00:24:11;;;;;;;;;;;23.30;50.80;;;;;;5074153;28;19998;-61
2022/06/20 00:26:36;;;;;;;;;;;23.00;51.30;;;;;;5073399;28;19912;-60
2022/06/20 00:29:03;;;;;;;;;;;22.90;51.70;;;;;;5073272;28;19919;-60
2022/06/20 00:31:29;;;;;;;;;;;23.00;51.40;;;;;;5073438;28;19912;-62
2022/06/20 00:33:54;;;;;;;;;;;23.00;51.70;;;;;;5073025;28;20011;-60
2022/06/20 00:36:20;;;;;;;;;;;23.10;51.50;;;;;;5072893;28;20344;-61
2022/06/20 00:38:48;;;;;;;;;;;23.10;51.30;;;;;;5073236;28;19927;-61
2022/06/20 00:41:17;;;;;;;;;;;23.00;51.70;;;;;;5072916;28;19999;-62
2022/06/20 00:43:45;;;;;;;;;;;23.00;51.40;;;;;;5073162;28;20232;-63
2022/06/20 00:46:23;;;;;;;;;;;22.90;52.40;;;;;;5073318;28;19912;-60
2022/06/20 00:48:51;;;;;;;;;;;22.70;52.60;;;;;;5072618;28;19921;-60
2022/06/20 00:51:21;;;;;;;;;;;22.60;53.10;;;;;;5072740;28;19917;-60
2022/06/20 00:54:12;;;;;;;;;;;22.40;53.50;;;;;;5072749;28;19908;-60
2022/06/20 00:56:46;;;;;;;;;;;22.40;53.80;;;;;;5067130;28;19912;-61
2022/06/20 00:59:13;;;;;;;;;;;22.40;54.30;;;;;;5072635;28;20360;-70
2022/06/20 01:01:40;;;;;;;;;;;22.30;54.60;;;;;;5072666;28;19909;-69
2022/06/20 01:04:09;;;;;;;;;;;22.20;54.60;;;;;;5072712;28;19910;-70
2022/06/20 01:06:36;;;;;;;;;;;22.10;54.90;;;;;;5082043;28;20291;-67
2022/06/20 01:09:07;;;;;;;;;;;22.20;54.90;;;;;;5076569;28;20419;-69
2022/06/20 01:11:53;;;;;;;;;;;22.40;54.30;;;;;;5072745;28;19913;-66
2022/06/20 01:14:24;;;;;;;;;;;22.50;53.70;;;;;;5072244;28;20050;-68
2022/06/20 01:16:51;;;;;;;;;;;22.50;53.50;;;;;;5072474;28;19959;-68
2022/06/20 01:19:25;;;;;;;;;;;22.30;53.60;;;;;;5072329;28;19920;-69
2022/06/20 01:21:51;;;;;;;;;;;22.40;53.20;;;;;;5072538;28;19954;-69
2022/06/20 01:24:30;;;;;;;;;;;22.30;52.60;;;;;;5072535;28;20005;-70
2022/06/20 01:27:10;;;;;;;;;;;22.20;52.50;;;;;;5072593;28;20355;-68
2022/06/20 01:29:36;;;;;;;;;;;22.20;52.20;;;;;;5072197;28;19917;-68
2022/06/20 01:32:02;;;;;;;;;;;22.10;52.10;;;;;;5072341;28;19909;-68
2022/06/20 01:34:27;;;;;;;;;;;22.10;52.10;;;;;;5070920;28;19962;-69
2022/06/20 01:39:40;;;;;;;;;;;22.10;52.00;;;;;;5072406;28;20291;-61
2022/06/20 01:42:22;;;;;;;;;;;22.00;52.40;;;;;;5072243;28;19909;-65
2022/06/20 01:44:49;;;;;;;;;;;22.10;51.60;;;;;;5071987;28;19912;-63
2022/06/20 01:47:15;;;;;;;;;;;22.20;50.50;;;;;;5072205;28;19916;-61
2022/06/20 01:49:41;;;;;;;;;;;22.40;50.60;;;;;;5072229;28;20279;-62
2022/06/20 01:52:20;;;;;;;;;;;22.60;50.10;;;;;;5072180;28;19920;-69
2022/06/20 01:54:48;;;;;;;;;;;22.80;49.40;;;;;;5071979;28;19917;-68
2022/06/20 01:57:15;;;;;;;;;;;22.80;48.90;;;;;;5071988;28;19917;-69
2022/06/20 02:00:02;;;;;;;;;;;22.90;49.20;;;;;;5072040;28;20287;-71
2022/06/20 02:02:29;;;;;;;;;;;23.10;48.70;;;;;;5067952;28;19916;-71
2022/06/20 02:04:54;;;;;;;;;;;23.10;47.90;;;;;;5072061;28;20402;-68
2022/06/20 02:07:20;;;;;;;;;;;22.80;48.60;;;;;;5086024;28;20003;-70
2022/06/20 02:09:45;;;;;;;;;;;22.70;48.90;;;;;;5071809;28;20352;-70
2022/06/20 02:12:11;;;;;;;;;;;22.60;48.80;;;;;;5071756;28;20364;-68
2022/06/20 02:14:41;;;;;;;;;;;22.50;49.00;;;;;;5071909;28;19931;-69
2022/06/20 02:17:10;;;;;;;;;;;22.60;49.40;;;;;;5071792;28;20386;-65
2022/06/20 02:19:39;;;;;;;;;;;22.60;49.70;;;;;;5070525;28;19924;-67
2022/06/20 02:22:06;;;;;;;;;;;22.60;49.20;;;;;;5071806;28;19962;-67
2022/06/20 02:24:34;;;;;;;;;;;22.80;49.50;;;;;;5073868;28;19984;-71
2022/06/20 02:27:02;;;;;;;;;;;23.00;48.50;;;;;;5075616;28;19916;-67
2022/06/20 02:29:28;;;;;;;;;;;23.20;47.90;;;;;;5075289;28;19909;-66
2022/06/20 02:31:55;;;;;;;;;;;23.30;47.50;;;;;;5075409;28;19909;-68
2022/06/20 02:34:22;;;;;;;;;;;23.40;46.90;;;;;;5075300;28;19976;-70
2022/06/20 02:36:48;;;;;;;;;;;23.40;47.20;;;;;;5075577;28;20356;-67
2022/06/20 02:39:14;;;;;;;;;;;23.50;46.30;;;;;;5075135;28;19909;-64
2022/06/20 02:41:40;;;;;;;;;;;23.50;46.10;;;;;;5075148;28;19977;-68
2022/06/20 02:44:08;;;;;;;;;;;23.50;46.20;;;;;;5075215;28;19912;-63
2022/06/20 02:46:34;;;;;;;;;;;23.60;46.10;;;;;;5075020;28;20379;-69
2022/06/20 02:49:01;;;;;;;;;;;23.60;45.80;;;;;;5074735;28;19928;-68
2022/06/20 02:51:30;;;;;;;;;;;23.70;45.70;;;;;;5075125;28;20360;-66
2022/06/20 02:53:56;;;;;;;;;;;23.70;45.50;;;;;;5075194;28;20306;-63
2022/06/20 02:56:24;;;;;;;;;;;23.80;45.20;;;;;;5075152;28;19912;-64
2022/06/20 02:58:51;;;;;;;;;;;23.80;45.20;;;;;;5074717;28;20390;-66
2022/06/20 03:01:23;;;;;;;;;;;23.80;44.90;;;;;;5074880;28;20256;-68
2022/06/20 03:03:50;;;;;;;;;;;23.70;44.80;;;;;;5074703;28;19908;-60
2022/06/20 03:06:21;;;;;;;;;;;23.70;44.90;;;;;;5081665;28;19912;-62
2022/06/20 03:08:47;;;;;;;;;;;23.80;45.20;;;;;;5081415;28;19919;-60
2022/06/20 03:11:13;;;;;;;;;;;23.50;45.30;;;;;;5074583;28;19909;-60
2022/06/20 03:13:39;;;;;;;;;;;23.20;46.10;;;;;;5074809;28;20263;-59
2022/06/20 03:16:05;;;;;;;;;;;23.00;46.50;;;;;;5074235;28;20426;-60
2022/06/20 03:18:33;;;;;;;;;;;22.70;46.90;;;;;;5074554;28;19920;-60
2022/06/20 03:20:59;;;;;;;;;;;22.60;47.30;;;;;;5074926;28;20260;-66
2022/06/20 03:23:29;;;;;;;;;;;22.60;48.00;;;;;;5074770;28;19908;-66
2022/06/20 03:25:58;;;;;;;;;;;22.50;48.00;;;;;;5074802;28;20348;-71
2022/06/20 03:28:25;;;;;;;;;;;22.40;48.40;;;;;;5074530;28;20348;-64
2022/06/20 03:30:51;;;;;;;;;;;22.40;48.50;;;;;;5074611;28;19951;-63
2022/06/20 03:33:17;;;;;;;;;;;22.50;48.80;;;;;;5074218;28;19916;-63
2022/06/20 03:35:47;;;;;;;;;;;22.40;48.20;;;;;;5074345;28;20429;-68
2022/06/20 03:38:13;;;;;;;;;;;22.40;48.20;;;;;;5074115;28;20410;-66
2022/06/20 03:40:39;;;;;;;;;;;22.60;48.30;;;;;;5074144;28;19912;-67
2022/06/20 03:43:06;;;;;;;;;;;22.70;47.30;;;;;;5060547;28;19908;-64
2022/06/20 03:45:33;;;;;;;;;;;22.50;47.70;;;;;;5074182;28;19908;-67
2022/06/20 03:48:11;;;;;;;;;;;22.40;47.90;;;;;;5073936;28;19974;-67
2022/06/20 03:50:47;;;;;;;;;;;22.20;48.30;;;;;;5074140;28;19912;-68
2022/06/20 03:53:13;;;;;;;;;;;22.30;48.00;;;;;;5074002;28;19909;-65
2022/06/20 03:55:38;;;;;;;;;;;22.30;47.60;;;;;;5073932;28;19908;-66
2022/06/20 03:58:04;;;;;;;;;;;22.30;48.20;;;;;;5073640;28;19965;-72
2022/06/20 04:00:36;;;;;;;;;;;22.30;47.00;;;;;;5074037;28;19920;-69
2022/06/20 04:03:09;;;;;;;;;;;22.30;48.30;;;;;;5073865;28;19909;-69
2022/06/20 04:05:37;;;;;;;;;;;22.20;48.70;;;;;;5074719;28;19916;-70
2022/06/20 04:08:05;;;;;;;;;;;22.20;48.30;;;;;;5086373;28;19931;-70
2022/06/20 04:13:23;;;;;;;;;;;22.20;48.60;;;;;;5073606;28;19919;-69
2022/06/20 04:15:51;;;;;;;;;;;22.10;48.80;;;;;;5073450;28;19915;-69
2022/06/20 04:18:28;;;;;;;;;;;22.00;48.60;;;;;;5073174;28;19968;-69
2022/06/20 04:21:12;;;;;;;;;;;22.00;48.90;;;;;;5073215;28;19920;-69
2022/06/20 04:23:47;;;;;;;;;;;22.10;49.20;;;;;;5073499;28;20015;-69
2022/06/20 04:26:14;;;;;;;;;;;22.20;49.00;;;;;;5073188;28;19909;-67
2022/06/20 04:28:52;;;;;;;;;;;22.20;48.90;;;;;;5073087;28;20279;-67
2022/06/20 04:31:20;;;;;;;;;;;22.20;49.10;;;;;;5073103;28;19917;-69
2022/06/20 04:33:51;;;;;;;;;;;22.30;48.20;;;;;;5073071;28;19920;-69
2022/06/20 04:36:32;;;;;;;;;;;22.30;48.20;;;;;;5072960;28;19924;-70
2022/06/20 04:39:04;;;;;;;;;;;22.50;47.80;;;;;;5072986;28;19962;-69
2022/06/20 04:41:40;;;;;;;;;;;22.90;46.30;;;;;;5072751;28;19923;-70
2022/06/20 04:44:21;;;;;;;;;;;23.00;46.20;;;;;;5072801;28;20334;-69
2022/06/20 04:47:05;;;;;;;;;;;23.10;45.90;;;;;;5072098;28;19912;-66
2022/06/20 04:49:32;;;;;;;;;;;22.90;46.60;;;;;;5072779;28;19928;-70
2022/06/20 04:51:57;;;;;;;;;;;23.00;47.20;;;;;;5072627;28;19959;-70
2022/06/20 04:54:23;;;;;;;;;;;23.10;46.60;;;;;;5072631;28;20384;-69
2022/06/20 04:56:52;;;;;;;;;;;23.00;46.60;;;;;;5072701;28;19927;-70
2022/06/20 04:59:19;;;;;;;;;;;22.90;47.20;;;;;;5072612;28;19916;-69
2022/06/20 05:01:45;;;;;;;;;;;22.60;47.70;;;;;;5072570;28;20346;-70
2022/06/20 05:04:19;;;;;;;;;;;22.40;48.40;;;;;;5072558;28;19954;-69
2022/06/20 05:06:45;;;;;;;;;;;22.30;48.90;;;;;;5083414;28;19912;-69
2022/06/20 05:09:15;;;;;;;;;;;22.20;49.50;;;;;;5075701;28;19977;-61
2022/06/20 05:11:44;;;;;;;;;;;22.40;50.10;;;;;;5072683;28;20018;-60
2022/06/20 05:14:13;;;;;;;;;;;22.60;50.00;;;;;;5072570;28;19913;-60
2022/06/20 05:16:42;;;;;;;;;;;22.70;49.70;;;;;;5072528;28;19912;-61
2022/06/20 05:19:17;;;;;;;;;;;22.80;49.20;;;;;;5072256;28;20037;-62
2022/06/20 05:21:45;;;;;;;;;;;22.70;49.10;;;;;;5072085;28;19959;-63
2022/06/20 05:24:12;;;;;;;;;;;22.70;49.80;;;;;;5072363;28;19912;-63
2022/06/20 05:26:39;;;;;;;;;;;22.80;50.70;;;;;;5072376;28;19908;-62
2022/06/20 05:29:11;;;;;;;;;;;22.80;50.80;;;;;;5072340;28;19916;-61
2022/06/20 05:31:39;;;;;;;;;;;22.90;51.30;;;;;;5072208;28;19935;-63
2022/06/20 05:34:05;;;;;;;;;;;23.00;51.30;;;;;;5072360;28;20007;-63
2022/06/20 05:36:35;;;;;;;;;;;23.40;50.50;;;;;;5085166;28;19956;-63
2022/06/20 05:39:04;;;;;;;;;;;24.10;49.60;;;;;;5072228;28;19915;-64
2022/06/20 05:41:30;;;;;;;;;;;24.90;48.30;;;;;;5072551;28;19916;-62
2022/06/20 05:43:56;;;;;;;;;;;25.60;46.60;;;;;;5072268;28;19961;-63
2022/06/20 05:46:24;;;;;;;;;;;26.10;44.90;;;;;;5070649;28;19917;-66
2022/06/20 05:48:52;;;;;;;;;;;26.60;44.20;;;;;;5071735;28;20295;-61
2022/06/20 05:51:19;;;;;;;;;;;27.00;43.30;;;;;;5072161;28;19913;-62
2022/06/20 05:53:44;;;;;;;;;;;27.30;41.80;;;;;;5072729;28;19939;-65
2022/06/20 05:56:30;;;;;;;;;;;27.60;41.40;;;;;;5071582;28;19908;-61
2022/06/20 05:58:56;;;;;;;;;;;27.90;42.70;;;;;;5069985;28;19916;-67
2022/06/20 06:01:30;;;;;;;;;;;28.20;41.60;;;;;;5077977;28;19951;-66
2022/06/20 06:04:16;;;;;;;;;;;28.40;40.40;;;;;;5077346;28;19915;-66
2022/06/20 06:06:47;;;;;;;;;;;28.50;38.30;;;;;;5091627;28;19961;-66
2022/06/20 06:09:13;;;;;;;;;;;28.70;37.20;;;;;;5083541;28;19912;-67
2022/06/20 06:12:04;;;;;;;;;;;28.80;36.10;;;;;;5078887;28;20003;-67
2022/06/20 06:14:30;;;;;;;;;;;29.00;36.30;;;;;;5077122;28;19919;-65
2022/06/20 06:17:02;;;;;;;;;;;29.20;36.30;;;;;;5080048;28;20278;-67
2022/06/20 06:19:34;;;;;;;;;;;29.30;34.70;;;;;;5078661;28;19936;-64
2022/06/20 06:22:01;;;;;;;;;;;29.30;33.90;;;;;;5078692;28;19915;-62
2022/06/20 06:24:28;;;;;;;;;;;29.40;33.00;;;;;;5076286;28;19922;-63
2022/06/20 06:26:58;;;;;;;;;;;29.50;34.00;;;;;;5076420;28;20006;-62
2022/06/20 06:29:31;;;;;;;;;;;29.60;33.90;;;;;;5076041;28;19955;-62
2022/06/20 06:31:58;;;;;;;;;;;29.40;32.60;;;;;;5075482;28;19966;-64
2022/06/20 06:34:23;;;;;;;;;;;29.30;32.70;;;;;;5075417;28;19917;-66
2022/06/20 06:36:58;;;;;;;;;;;29.20;33.20;;;;;;5075026;28;19917;-66
2022/06/20 06:39:27;;;;;;;;;;;29.40;33.60;;;;;;5075756;28;20105;-65
2022/06/20 06:41:57;;;;;;;;;;;29.60;33.10;;;;;;5075731;28;19908;-64
2022/06/20 06:44:29;;;;;;;;;;;29.80;33.20;;;;;;5074533;28;19909;-63
2022/06/20 06:46:55;;;;;;;;;;;30.00;32.90;;;;;;5089202;28;20051;-64
2022/06/20 06:49:31;;;;;;;;;;;30.10;32.70;;;;;;5075870;28;19977;-64
2022/06/20 06:52:06;;;;;;;;;;;30.30;32.40;;;;;;5074797;28;19915;-65
2022/06/20 06:54:41;;;;;;;;;;;30.40;32.60;;;;;;5075763;28;19985;-65
2022/06/20 06:57:25;;;;;;;;;;;30.40;31.30;;;;;;5075580;28;19920;-64
2022/06/20 06:59:50;;;;;;;;;;;30.30;31.60;;;;;;5094744;28;20031;-65
2022/06/20 07:02:17;;;;;;;;;;;30.20;32.70;;;;;;5095188;28;20170;-63
2022/06/20 07:04:46;;;;;;;;;;;30.30;32.80;;;;;;5093136;28;20409;-67
2022/06/20 07:07:15;;;;;;;;;;;30.40;32.50;;;;;;5095466;28;20371;-66
2022/06/20 07:09:49;;;;;;;;;;;30.50;31.80;;;;;;5095512;28;20656;-68
2022/06/20 07:12:23;;;;;;;;;;;30.40;32.40;;;;;;5095086;28;19916;-73
2022/06/20 07:15:04;;;;;;;;;;;30.30;32.40;;;;;;5087901;28;20284;-66
2022/06/20 07:17:33;;;;;;;;;;;30.20;32.20;;;;;;5076410;28;19917;-66
2022/06/20 07:20:00;;;;;;;;;;;30.10;32.60;;;;;;5077236;28;19951;-66
2022/06/20 07:22:26;;;;;;;;;;;30.10;33.00;;;;;;5075064;28;20061;-70
2022/06/20 07:24:52;;;;;;;;;;;30.10;34.00;;;;;;5075397;28;19909;-65
2022/06/20 07:27:21;;;;;;;;;;;30.10;32.90;;;;;;5073231;28;19909;-68
2022/06/20 07:29:55;;;;;;;;;;;30.20;33.30;;;;;;5074411;28;20003;-65
2022/06/20 07:32:42;;;;;;;;;;;30.20;32.70;;;;;;5074359;28;19963;-68
2022/06/20 07:35:17;;;;;;;;;;;30.30;32.10;;;;;;5075102;28;19989;-65
2022/06/20 07:38:04;;;;;;;;;;;30.30;31.80;;;;;;5074994;28;19931;-67
2022/06/20 07:40:58;;;;;;;;;;;30.40;31.40;;;;;;5075131;28;19912;-66
2022/06/20 07:43:35;;;;;;;;;;;30.20;30.90;;;;;;5070312;28;20008;-64
2022/06/20 07:46:07;;;;;;;;;;;30.00;31.10;;;;;;5074357;28;20261;-65
2022/06/20 07:48:35;;;;;;;;;;;29.80;32.30;;;;;;5073892;28;19920;-66
2022/06/20 07:51:09;;;;;;;;;;;29.80;32.00;;;;;;5073844;28;20023;-66
2022/06/20 07:53:41;;;;;;;;;;;29.70;32.20;;;;;;5074206;28;20326;-66
2022/06/20 07:56:09;;;;;;;;;;;29.80;32.30;;;;;;5073916;28;20418;-65
2022/06/20 07:58:37;;;;;;;;;;;29.90;31.80;;;;;;5073714;28;19924;-67
2022/06/20 08:01:12;;;;;;;;;;;29.90;32.60;;;;;;5074284;28;19923;-66
2022/06/20 08:03:40;;;;;;;;;;;30.00;31.50;;;;;;5074429;28;20372;-65
2022/06/20 08:06:24;;;;;;;;;;;29.90;32.10;;;;;;5079541;28;19908;-67
2022/06/20 08:08:52;;;;;;;;;;;29.90;32.50;;;;;;5078645;28;19909;-69
2022/06/20 08:11:41;;;;;;;;;;;30.00;33.10;;;;;;5073659;28;19913;-69
2022/06/20 08:14:11;;;;;;;;;;;30.00;31.80;;;;;;5073383;28;19945;-67
2022/06/20 08:16:37;;;;;;;;;;;30.00;32.70;;;;;;5073539;28;19913;-66
2022/06/20 08:19:03;;;;;;;;;;;30.00;32.70;;;;;;5073483;28;19962;-65
2022/06/20 08:21:36;;;;;;;;;;;30.10;33.00;;;;;;5072742;28;19920;-66
2022/06/20 08:24:14;;;;;;;;;;;30.20;32.80;;;;;;5073365;28;19915;-68
2022/06/20 08:26:43;;;;;;;;;;;30.20;32.40;;;;;;5073318;28;19919;-68
2022/06/20 08:29:13;;;;;;;;;;;30.30;32.00;;;;;;5073394;28;19913;-65
2022/06/20 08:31:45;;;;;;;;;;;30.30;31.40;;;;;;5073108;28;19909;-67
2022/06/20 08:34:14;;;;;;;;;;;30.10;31.80;;;;;;5073382;28;19959;-67
2022/06/20 08:36:45;;;;;;;;;;;30.10;33.40;;;;;;5073132;28;19915;-67
2022/06/20 08:39:16;;;;;;;;;;;30.10;33.10;;;;;;5073117;28;19913;-65
2022/06/20 08:41:51;;;;;;;;;;;30.20;33.10;;;;;;5073107;28;19912;-66
2022/06/20 08:44:35;;;;;;;;;;;30.20;33.10;;;;;;5073388;28;19912;-66
2022/06/20 08:47:39;;;;;;;;;;;30.20;33.40;;;;;;5073391;28;20003;-65
2022/06/20 08:50:17;;;;;;;;;;;30.20;33.20;;;;;;5068387;28;20003;-67
2022/06/20 08:53:01;;;;;;;;;;;30.30;33.00;;;;;;5071344;28;20311;-66
2022/06/20 08:55:36;;;;;;;;;;;30.30;32.00;;;;;;5072281;28;20015;-66
2022/06/20 08:58:09;;;;;;;;;;;30.20;32.40;;;;;;5073087;28;19916;-67
2022/06/20 09:00:58;;;;;;;;;;;30.20;33.10;;;;;;5073137;28;20295;-69
2022/06/20 09:03:29;;;;;;;;;;;30.20;33.20;;;;;;5067360;28;19969;-68
2022/06/20 09:06:07;;;;;;;;;;;30.10;33.60;;;;;;5076961;28;19908;-68
2022/06/20 09:08:33;;;;;;;;;;;30.20;33.90;;;;;;5081281;28;19936;-67
2022/06/20 09:11:05;;;;;;;;;;;30.10;33.80;;;;;;5073127;28;20363;-66
2022/06/20 09:13:49;;;;;;;;;;;30.00;34.10;;;;;;5072496;28;20013;-64
2022/06/20 09:16:17;;;;;;;;;;;30.00;34.20;;;;;;5072220;28;20387;-66
2022/06/20 09:18:48;;;;;;;;;;;30.00;33.90;;;;;;5072152;28;20406;-64
2022/06/20 09:21:13;;;;;;;;;;;30.00;34.30;;;;;;5072416;28;19997;-67
2022/06/20 09:23:57;;;;;;;;;;;29.90;35.30;;;;;;5072499;28;20386;-67
2022/06/20 09:26:32;;;;;;;;;;;29.90;35.50;;;;;;5072275;28;19947;-66
2022/06/20 09:28:57;;;;;;;;;;;29.90;36.00;;;;;;5070858;28;20287;-66
2022/06/20 09:31:41;;;;;;;;;;;29.90;36.60;;;;;;5072166;28;19913;-68
2022/06/20 09:34:07;;;;;;;;;;;29.80;37.10;;;;;;5072079;28;19970;-68
2022/06/20 09:36:35;;;;;;;;;;;29.80;38.10;;;;;;5072113;28;20373;-68
2022/06/20 09:39:04;;;;;;;;;;;29.80;38.10;;;;;;5072198;28;19916;-64
2022/06/20 09:41:40;;;;;;;;;;;29.80;38.80;;;;;;5071965;28;20492;-67
2022/06/20 09:44:17;;;;;;;;;;;29.70;39.00;;;;;;5072168;28;19913;-65
2022/06/20 09:46:51;;;;;;;;;;;29.70;38.90;;;;;;5072084;28;19923;-66
2022/06/20 09:49:29;;;;;;;;;;;29.70;39.70;;;;;;5071945;28;19928;-66
2022/06/20 09:52:13;;;;;;;;;;;29.60;38.10;;;;;;5072031;28;19909;-68
2022/06/20 09:54:57;;;;;;;;;;;29.50;38.50;;;;;;5072478;28;20284;-68
2022/06/20 09:57:26;;;;;;;;;;;29.40;39.60;;;;;;5071901;28;19974;-69
2022/06/20 10:00:04;;;;;;;;;;;29.30;40.30;;;;;;5071994;28;19995;-66
2022/06/20 10:02:32;;;;;;;;;;;29.20;40.50;;;;;;5071441;28;19912;-69
2022/06/20 10:05:21;;;;;;;;;;;29.10;40.50;;;;;;5071998;28;19983;-66
2022/06/20 10:07:52;;;;;;;;;;;29.00;41.20;;;;;;5086175;28;20039;-67
2022/06/20 10:10:32;;;;;;;;;;;28.90;41.80;;;;;;5071863;28;19909;-64
2022/06/20 10:12:58;;;;;;;;;;;28.90;42.40;;;;;;5071933;28;19997;-64
2022/06/20 10:15:44;;;;;;;;;;;28.80;43.60;;;;;;5072841;28;19971;-66
2022/06/20 10:18:19;;;;;;;;;;;28.80;43.50;;;;;;5071588;28;19922;-74
2022/06/20 10:20:53;;;;;;;;;;;28.70;45.20;;;;;;5072300;28;19916;-75
2022/06/20 10:23:22;;;;;;;;;;;28.70;45.60;;;;;;5074410;28;19919;-65
2022/06/20 10:26:08;;;;;;;;;;;28.70;45.90;;;;;;5073565;28;20431;-71
2022/06/20 10:28:33;;;;;;;;;;;28.80;47.40;;;;;;5072436;28;20331;-65
2022/06/20 10:31:19;;;;;;;;;;;28.70;46.70;;;;;;5071814;28;19938;-65
2022/06/20 10:33:47;;;;;;;;;;;28.70;47.10;;;;;;5071639;28;19997;-65
2022/06/20 10:36:42;;;;;;;;;;;28.70;47.60;;;;;;5071819;28;19912;-66
2022/06/20 10:39:07;;;;;;;;;;;28.60;48.00;;;;;;5066676;28;19943;-69
2022/06/20 10:41:52;;;;;;;;;;;28.60;48.50;;;;;;5071686;28;20372;-69
2022/06/20 10:44:22;;;;;;;;;;;28.60;49.00;;;;;;5072254;28;19912;-67
2022/06/20 10:46:54;;;;;;;;;;;28.60;50.20;;;;;;5075002;28;19923;-68
2022/06/20 10:49:39;;;;;;;;;;;28.60;49.60;;;;;;5074859;28;19927;-64
2022/06/20 10:52:30;;;;;;;;;;;28.50;49.00;;;;;;5075065;28;19909;-71
2022/06/20 10:54:56;;;;;;;;;;;28.60;49.50;;;;;;5073689;28;19908;-68
2022/06/20 10:57:46;;;;;;;;;;;28.60;50.70;;;;;;5074819;28;20325;-70
2022/06/20 11:00:13;;;;;;;;;;;28.50;51.20;;;;;;5074998;28;20283;-66
2022/06/20 11:02:58;;;;;;;;;;;28.50;51.50;;;;;;5074972;28;19912;-64
2022/06/20 11:05:26;;;;;;;;;;;28.40;52.10;;;;;;5074730;28;19913;-71
2022/06/20 11:07:51;;;;;;;;;;;28.50;52.20;;;;;;5088899;28;19915;-66
2022/06/20 11:10:26;;;;;;;;;;;28.50;53.00;;;;;;5074617;28;19917;-65
2022/06/20 11:12:56;;;;;;;;;;;28.40;53.30;;;;;;5073130;28;19999;-67
2022/06/20 11:15:57;;;;;;;;;;;28.40;53.40;;;;;;5073397;28;20019;-68
2022/06/20 11:18:38;;;;;;;;;;;28.50;54.10;;;;;;5083907;28;19916;-65
2022/06/20 11:21:15;;;;;;;;;;;28.40;54.20;;;;;;5073495;28;19912;-68
2022/06/20 11:23:48;;;;;;;;;;;28.50;53.80;;;;;;5073742;28;19947;-68
2022/06/20 11:26:21;;;;;;;;;;;28.50;54.10;;;;;;5073604;28;19913;-67
2022/06/20 11:28:53;;;;;;;;;;;28.40;54.30;;;;;;5073533;28;19930;-69
2022/06/20 11:31:34;;;;;;;;;;;28.50;54.30;;;;;;5073574;28;20005;-65
2022/06/20 11:34:11;;;;;;;;;;;28.50;54.40;;;;;;5073589;28;19912;-68
2022/06/20 11:36:55;;;;;;;;;;;28.50;54.00;;;;;;5073359;28;19915;-65
2022/06/20 11:39:36;;;;;;;;;;;28.50;53.90;;;;;;5071991;28;20151;-65
2022/06/20 11:42:08;;;;;;;;;;;28.50;53.90;;;;;;5086964;28;19916;-70
2022/06/20 11:44:42;;;;;;;;;;;28.50;54.40;;;;;;5072006;28;19909;-67
2022/06/20 11:47:31;;;;;;;;;;;28.50;54.90;;;;;;5072920;28;19962;-69
2022/06/20 11:50:06;;;;;;;;;;;28.40;55.40;;;;;;5073238;28;19963;-68
2022/06/20 11:52:42;;;;;;;;;;;28.50;56.40;;;;;;5073335;28;19912;-67
2022/06/20 11:55:25;;;;;;;;;;;28.40;56.30;;;;;;5072969;28;19912;-68
2022/06/20 11:57:53;;;;;;;;;;;28.40;56.70;;;;;;5079139;28;19955;-64
2022/06/20 12:00:20;;;;;;;;;;;28.40;56.70;;;;;;5084250;28;19917;-71
2022/06/20 12:02:55;;;;;;;;;;;28.40;56.50;;;;;;5077857;28;19923;-68
2022/06/20 12:05:33;;;;;;;;;;;28.30;56.30;;;;;;5077407;28;19908;-66
2022/06/20 12:08:02;;;;;;;;;;;28.40;57.00;;;;;;5072441;28;19951;-69
2022/06/20 12:10:40;;;;;;;;;;;28.40;56.70;;;;;;5072801;28;20345;-67
2022/06/20 12:13:05;;;;;;;;;;;28.40;56.50;;;;;;5080775;28;19931;-67
2022/06/20 12:15:36;;;;;;;;;;;28.40;57.50;;;;;;5087006;28;20375;-65
2022/06/20 12:18:02;;;;;;;;;;;28.40;57.30;;;;;;5080896;28;19921;-65
2022/06/20 12:23:27;;;;;;;;;;;28.50;57.40;;;;;;5079485;28;19918;-66
2022/06/20 12:25:52;;;;;;;;;;;28.40;58.30;;;;;;5078875;28;19913;-67
2022/06/20 12:28:18;;;;;;;;;;;28.40;58.10;;;;;;5071771;28;19919;-67
2022/06/20 12:31:03;;;;;;;;;;;28.30;58.90;;;;;;5072714;28;19962;-67
2022/06/20 12:33:29;;;;;;;;;;;28.30;59.80;;;;;;5092177;28;19908;-67
2022/06/20 12:35:59;;;;;;;;;;;28.20;59.60;;;;;;5092559;28;19919;-67
2022/06/20 12:38:42;;;;;;;;;;;28.20;59.70;;;;;;5090253;28;19920;-67
2022/06/20 12:41:10;;;;;;;;;;;28.10;60.50;;;;;;5092263;28;19958;-68
2022/06/20 12:43:41;;;;;;;;;;;28.10;60.30;;;;;;5091426;28;19954;-66
2022/06/20 12:46:07;;;;;;;;;;;28.20;60.40;;;;;;5091908;28;19916;-68
2022/06/20 12:48:44;;;;;;;;;;;28.20;60.90;;;;;;5091667;28;19933;-66
2022/06/20 12:51:16;;;;;;;;;;;28.20;61.10;;;;;;5091775;28;19919;-69
2022/06/20 12:54:01;;;;;;;;;;;28.20;61.10;;;;;;5091316;28;19918;-67
2022/06/20 12:56:30;;;;;;;;;;;28.20;61.90;;;;;;5087688;28;20368;-67
2022/06/20 12:58:58;;;;;;;;;;;28.20;61.40;;;;;;5091118;28;19916;-66
2022/06/20 13:01:28;;;;;;;;;;;28.30;62.30;;;;;;5090590;28;19912;-66
2022/06/20 13:04:13;;;;;;;;;;;28.20;61.30;;;;;;5088601;28;19997;-68
2022/06/20 13:06:57;;;;;;;;;;;28.20;62.20;;;;;;5081688;28;20007;-67
2022/06/20 13:09:26;;;;;;;;;;;28.20;63.40;;;;;;5091299;28;19912;-66
2022/06/20 13:11:51;;;;;;;;;;;28.10;63.40;;;;;;5091310;28;20343;-68
2022/06/20 13:14:24;;;;;;;;;;;28.10;63.70;;;;;;5092041;28;19918;-67
2022/06/20 13:16:56;;;;;;;;;;;28.00;64.20;;;;;;5079030;28;19969;-63
2022/06/20 13:19:48;;;;;;;;;;;28.00;63.50;;;;;;5082143;28;19927;-66
2022/06/20 13:22:28;;;;;;;;;;;28.00;65.60;;;;;;5077998;28;19912;-71
2022/06/20 13:25:03;;;;;;;;;;;28.00;65.40;;;;;;5092472;28;20230;-64
2022/06/20 13:27:50;;;;;;;;;;;28.00;64.50;;;;;;5074771;28;19913;-65
2022/06/20 13:30:36;;;;;;;;;;;28.00;64.20;;;;;;5072387;28;19915;-65
2022/06/20 13:33:11;;;;;;;;;;;28.10;64.10;;;;;;5080462;28;19912;-67
2022/06/20 13:35:46;;;;;;;;;;;28.10;64.60;;;;;;5090428;28;19915;-66
2022/06/20 13:38:21;;;;;;;;;;;28.10;64.70;;;;;;5092187;28;19958;-66
2022/06/20 13:40:52;;;;;;;;;;;28.20;64.80;;;;;;5092255;28;19947;-68
2022/06/20 13:43:18;;;;;;;;;;;28.10;63.90;;;;;;5092048;28;19919;-66
2022/06/20 13:45:46;;;;;;;;;;;28.20;64.90;;;;;;5092153;28;19912;-70
2022/06/20 13:48:35;;;;;;;;;;;28.10;63.70;;;;;;5091965;28;19920;-65
2022/06/20 13:51:15;;;;;;;;;;;28.10;64.20;;;;;;5092454;28;19912;-67
2022/06/20 13:53:43;;;;;;;;;;;28.10;64.20;;;;;;5092230;28;19912;-67
2022/06/20 13:56:09;;;;;;;;;;;28.10;64.20;;;;;;5092102;28;19962;-69
2022/06/20 13:58:34;;;;;;;;;;;28.10;64.20;;;;;;5092130;28;19924;-69
2022/06/20 14:01:06;;;;;;;;;;;28.10;64.40;;;;;;5092303;28;20253;-71
2022/06/20 14:03:37;;;;;;;;;;;28.10;63.70;;;;;;5092124;28;19961;-70
2022/06/20 14:06:10;;;;;;;;;;;28.10;64.20;;;;;;5092005;28;20383;-70
2022/06/20 14:08:37;;;;;;;;;;;28.10;63.90;;;;;;5092135;28;19912;-69
2022/06/20 14:11:07;;;;;;;;;;;28.00;63.30;;;;;;5086617;28;19951;-66
2022/06/20 14:13:44;;;;;;;;;;;28.00;63.10;;;;;;5070748;28;19995;-67
2022/06/20 14:16:24;;;;;;;;;;;28.00;63.00;;;;;;5075918;28;19908;-67
2022/06/20 14:18:54;;;;;;;;;;;28.10;63.80;;;;;;5090765;28;19920;-69
2022/06/20 14:21:20;;;;;;;;;;;28.10;63.30;;;;;;5082985;28;19975;-64
2022/06/20 14:23:48;;;;;;;;;;;28.10;62.60;;;;;;5080029;28;19913;-64
2022/06/20 14:26:35;;;;;;;;;;;28.10;63.20;;;;;;5096028;28;19911;-66
2022/06/20 14:29:02;;;;;;;;;;;28.10;62.80;;;;;;5095767;28;20007;-60
2022/06/20 14:31:33;;;;;;;;;;;28.10;63.60;;;;;;5096014;28;19912;-63
2022/06/20 14:34:18;;;;;;;;;;;28.10;63.60;;;;;;5095229;28;20015;-65
2022/06/20 14:36:54;;;;;;;;;;;28.10;62.70;;;;;;5094678;28;20374;-62
2022/06/20 14:39:30;;;;;;;;;;;28.10;61.60;;;;;;5093465;28;19922;-72
2022/06/20 14:41:55;;;;;;;;;;;28.10;61.30;;;;;;5075726;28;20015;-63
2022/06/20 14:44:24;;;;;;;;;;;28.20;61.80;;;;;;5075364;28;20395;-72
2022/06/20 14:47:02;;;;;;;;;;;28.20;61.30;;;;;;5077636;28;19966;-63
2022/06/20 14:49:31;;;;;;;;;;;28.20;60.70;;;;;;5087006;28;19928;-65
2022/06/20 14:52:06;;;;;;;;;;;28.20;61.00;;;;;;5075303;28;20769;-63
2022/06/20 14:54:50;;;;;;;;;;;28.20;60.70;;;;;;5077150;28;19920;-65